Time;durP1;ratioP1;P1;durP2;ratioP2;P2;SDS_P1;SDS_P2;PMS_P1;PMS_P2;Temp;Humidity;BMP_temperature;BMP_pressure;BME280_temperature;BME280_humidity;BME280_pressure;Samples;Min_cycle;Max_cycle;Signal;HPM_P1;HPM_P2
2022/03/28 00:00:48;;;;;;;15.98;9.35;;;27.30;90.10;;;;;;5124718;28;20015;-53
2022/03/28 00:03:15;;;;;;;43.25;39.47;;;27.20;90.10;;;;;;5124964;28;20035;-48
2022/03/28 00:05:41;;;;;;;18.00;15.32;;;27.20;90.20;;;;;;5124841;28;20016;-50
2022/03/28 00:08:08;;;;;;;16.67;11.93;;;27.20;90.20;;;;;;5124654;28;20023;-48
2022/03/28 00:10:35;;;;;;;11.43;9.52;;;27.20;90.10;;;;;;5124777;28;20086;-51
2022/03/28 00:13:01;;;;;;;12.63;8.02;;;27.20;90.10;;;;;;5125044;28;20096;-49
2022/03/28 00:15:28;;;;;;;14.88;7.22;;;27.20;90.10;;;;;;5124646;28;20027;-46
2022/03/28 00:17:55;;;;;;;11.07;7.18;;;27.10;90.20;;;;;;5124148;28;20035;-48
2022/03/28 00:20:23;;;;;;;13.10;6.50;;;27.10;90.20;;;;;;5124383;28;20020;-48
2022/03/28 00:22:49;;;;;;;11.73;7.15;;;27.10;90.20;;;;;;5124872;28;20027;-53
2022/03/28 00:25:16;;;;;;;12.02;7.40;;;27.10;90.20;;;;;;5124638;28;20019;-52
2022/03/28 00:27:42;;;;;;;10.88;6.97;;;27.10;90.10;;;;;;5124484;28;20051;-55
2022/03/28 00:30:11;;;;;;;12.35;7.20;;;27.10;90.10;;;;;;5122567;28;20082;-57
2022/03/28 00:32:38;;;;;;;12.07;6.97;;;27.10;90.10;;;;;;5123387;28;20038;-56
2022/03/28 00:35:06;;;;;;;13.55;6.43;;;27.10;90.10;;;;;;5123912;28;20020;-54
2022/03/28 00:37:32;;;;;;;9.43;5.88;;;27.10;90.00;;;;;;5123804;28;20027;-54
2022/03/28 00:39:59;;;;;;;13.73;7.32;;;27.10;90.10;;;;;;5124534;28;20011;-57
2022/03/28 00:42:26;;;;;;;10.23;6.63;;;27.00;90.10;;;;;;5124482;28;20016;-53
2022/03/28 00:44:52;;;;;;;11.95;6.55;;;27.10;90.10;;;;;;5123805;28;20338;-53
2022/03/28 00:47:19;;;;;;;13.75;8.27;;;27.00;90.10;;;;;;5127533;28;20027;-54
2022/03/28 00:49:46;;;;;;;12.20;8.55;;;27.00;90.20;;;;;;5131503;28;20023;-58
2022/03/28 00:52:12;;;;;;;12.00;8.15;;;27.00;90.40;;;;;;5144616;28;20037;-55
2022/03/28 00:54:42;;;;;;;13.65;8.57;;;27.00;90.40;;;;;;5142860;28;20086;-56
2022/03/28 00:57:08;;;;;;;10.00;7.68;;;27.00;90.50;;;;;;5124398;28;20086;-56
2022/03/28 00:59:37;;;;;;;10.98;7.72;;;27.00;90.60;;;;;;5124168;28;20083;-55
2022/03/28 01:02:06;;;;;;;12.43;7.50;;;27.00;90.70;;;;;;5124119;28;20023;-56
2022/03/28 01:04:32;;;;;;;11.30;7.45;;;27.00;90.60;;;;;;5126016;28;20072;-56
2022/03/28 01:06:59;;;;;;;10.25;7.78;;;27.00;90.80;;;;;;5144780;28;20030;-57
2022/03/28 01:09:25;;;;;;;13.18;7.03;;;27.00;90.80;;;;;;5144813;28;20064;-55
2022/03/28 01:11:55;;;;;;;76.00;70.15;;;26.90;90.80;;;;;;5144704;28;20034;-55
2022/03/28 01:14:22;;;;;;;115.50;106.40;;;26.90;90.70;;;;;;5144515;28;20326;-57
2022/03/28 01:19:33;;;;;;;39.83;36.10;;;26.90;90.50;;;;;;5144521;28;20080;-53
2022/03/28 01:22:00;;;;;;;45.58;41.08;;;26.90;90.50;;;;;;5127787;28;20192;-54
2022/03/28 01:24:27;;;;;;;48.45;43.53;;;26.90;90.50;;;;;;5124092;28;20078;-54
2022/03/28 01:26:55;;;;;;;39.75;35.67;;;26.90;90.40;;;;;;5123977;28;20072;-51
2022/03/28 01:29:22;;;;;;;26.50;22.95;;;26.90;90.50;;;;;;5123941;28;20048;-56
2022/03/28 01:31:48;;;;;;;24.02;21.60;;;26.90;90.40;;;;;;5123789;28;20012;-49
2022/03/28 01:34:20;;;;;;;21.95;18.30;;;26.90;90.50;;;;;;5123851;28;20231;-50
2022/03/28 01:36:48;;;;;;;18.33;14.77;;;26.90;90.50;;;;;;5123851;28;20078;-51
2022/03/28 01:39:16;;;;;;;18.90;13.13;;;26.90;90.60;;;;;;5123779;28;20052;-48
2022/03/28 01:41:44;;;;;;;14.13;11.45;;;26.90;90.60;;;;;;5123737;28;20019;-56
2022/03/28 01:44:12;;;;;;;12.20;9.85;;;26.90;90.70;;;;;;5123935;28;20019;-50
2022/03/28 01:46:44;;;;;;;13.35;9.75;;;26.90;90.70;;;;;;5127146;28;20091;-50
2022/03/28 01:49:14;;;;;;;;;;;26.90;90.70;;;;;;5127773;28;20335;-53
2022/03/28 01:51:41;;;;;;;13.63;9.35;;;26.90;90.80;;;;;;5127470;28;20179;-50
2022/03/28 01:54:08;;;;;;;14.13;8.27;;;26.80;90.80;;;;;;5127014;28;20028;-53
2022/03/28 01:56:36;;;;;;;15.95;10.85;;;26.80;90.90;;;;;;5127461;28;20079;-51
2022/03/28 01:59:04;;;;;;;20.55;16.17;;;26.80;90.90;;;;;;5127232;28;20030;-47
2022/03/28 02:01:31;;;;;;;23.98;19.42;;;26.80;90.90;;;;;;5126959;28;20039;-50
2022/03/28 02:03:58;;;;;;;21.30;15.18;;;26.80;91.00;;;;;;5127081;28;20077;-48
2022/03/28 02:06:26;;;;;;;20.13;15.45;;;26.80;90.80;;;;;;5127142;28;20015;-56
2022/03/28 02:08:53;;;;;;;24.50;20.25;;;26.80;90.80;;;;;;5127027;28;20075;-56
2022/03/28 02:11:20;;;;;;;24.70;19.65;;;26.80;90.70;;;;;;5126956;28;20022;-50
2022/03/28 02:13:47;;;;;;;26.27;16.55;;;26.70;90.90;;;;;;5127104;28;20039;-54
2022/03/28 02:16:14;;;;;;;20.85;14.77;;;26.70;90.90;;;;;;5126530;28;20015;-49
2022/03/28 02:18:41;;;;;;;20.23;13.80;;;26.70;90.90;;;;;;5126748;28;20019;-54
2022/03/28 02:21:08;;;;;;;17.30;11.82;;;26.70;90.90;;;;;;5126848;28;20090;-53
2022/03/28 02:23:34;;;;;;;14.55;10.00;;;26.70;90.80;;;;;;5127322;28;20068;-49
2022/03/28 02:26:02;;;;;;;17.73;10.65;;;26.70;90.80;;;;;;5126578;28;20194;-50
2022/03/28 02:28:29;;;;;;;15.20;9.40;;;26.70;90.70;;;;;;5127051;28;20313;-50
2022/03/28 02:30:56;;;;;;;17.13;9.02;;;26.70;90.90;;;;;;5126450;28;20051;-49
2022/03/28 02:33:23;;;;;;;16.55;9.43;;;26.70;90.70;;;;;;5126966;28;20029;-51
2022/03/28 02:35:50;;;;;;;15.90;8.98;;;26.70;90.60;;;;;;5126533;28;20030;-52
2022/03/28 02:38:17;;;;;;;22.08;14.27;;;26.70;90.50;;;;;;5137860;27;20038;-53
2022/03/28 02:40:44;;;;;;;25.38;18.90;;;26.70;90.40;;;;;;5126538;28;20091;-48
2022/03/28 02:43:10;;;;;;;66.22;58.72;;;26.70;90.30;;;;;;5126936;28;20023;-51
2022/03/28 02:45:38;;;;;;;34.22;28.08;;;26.70;90.40;;;;;;5126022;28;20016;-51
2022/03/28 02:48:05;;;;;;;54.25;48.38;;;26.70;90.20;;;;;;5126108;28;20053;-51
2022/03/28 02:50:33;;;;;;;59.20;52.35;;;26.70;90.20;;;;;;5126285;28;20023;-48
2022/03/28 02:53:00;;;;;;;36.35;30.45;;;26.70;90.00;;;;;;5126488;28;20031;-51
2022/03/28 02:55:27;;;;;;;31.45;25.85;;;26.70;89.70;;;;;;5126075;28;20015;-49
2022/03/28 02:57:53;;;;;;;23.92;20.85;;;26.70;89.60;;;;;;5126604;28;20023;-46
2022/03/28 03:00:21;;;;;;;22.80;19.23;;;26.70;89.30;;;;;;5126025;28;20349;-53
2022/03/28 03:02:47;;;;;;;21.13;15.38;;;26.70;89.20;;;;;;5126277;28;20027;-48
2022/03/28 03:05:14;;;;;;;20.70;14.55;;;26.70;89.00;;;;;;5125923;28;20183;-47
2022/03/28 03:07:41;;;;;;;15.45;13.02;;;26.70;89.00;;;;;;5126205;28;20027;-46
2022/03/28 03:10:09;;;;;;;14.70;9.60;;;26.70;88.50;;;;;;5125805;28;20019;-51
2022/03/28 03:12:35;;;;;;;17.02;8.85;;;26.70;88.30;;;;;;5126161;28;20035;-53
2022/03/28 03:15:03;;;;;;;18.42;9.23;;;26.70;88.20;;;;;;5125881;28;20039;-52
2022/03/28 03:17:29;;;;;;;12.93;8.52;;;26.70;88.30;;;;;;5125428;28;20128;-48
2022/03/28 03:19:56;;;;;;;11.55;7.82;;;26.70;88.00;;;;;;5125725;28;20200;-48
2022/03/28 03:22:22;;;;;;;12.25;7.18;;;26.60;87.70;;;;;;5125912;28;20024;-56
2022/03/28 03:24:49;;;;;;;15.63;6.93;;;26.70;87.90;;;;;;5125522;28;20024;-52
2022/03/28 03:27:16;;;;;;;9.68;6.13;;;26.70;87.90;;;;;;5125834;28;20023;-52
2022/03/28 03:29:42;;;;;;;13.05;6.45;;;26.70;87.80;;;;;;5125544;28;20312;-50
2022/03/28 03:32:10;;;;;;;11.27;5.97;;;26.70;88.00;;;;;;5125260;28;20219;-51
2022/03/28 03:34:36;;;;;;;13.35;6.30;;;26.60;88.10;;;;;;5125436;28;20023;-50
2022/03/28 03:37:04;;;;;;;11.32;6.07;;;26.60;88.40;;;;;;5125066;28;20031;-47
2022/03/28 03:39:30;;;;;;;11.07;5.55;;;26.60;88.80;;;;;;5124522;28;20012;-53
2022/03/28 03:41:57;;;;;;;10.20;5.60;;;26.60;88.90;;;;;;5125199;28;20047;-51
2022/03/28 03:44:23;;;;;;;15.07;6.18;;;26.60;88.90;;;;;;5125238;28;20413;-53
2022/03/28 03:46:50;;;;;;;12.85;6.00;;;26.60;88.90;;;;;;5125196;28;20326;-54
2022/03/28 03:49:17;;;;;;;11.07;5.70;;;26.60;88.90;;;;;;5125072;28;20039;-54
2022/03/28 03:51:43;;;;;;;10.85;5.95;;;26.60;88.50;;;;;;5125393;28;20253;-51
2022/03/28 03:54:10;;;;;;;9.77;5.95;;;26.60;87.80;;;;;;5124888;28;20019;-54
2022/03/28 03:56:37;;;;;;;11.57;5.53;;;26.60;87.30;;;;;;5125291;28;20207;-50
2022/03/28 03:59:05;;;;;;;11.85;5.15;;;26.60;86.90;;;;;;5124877;28;20031;-48
2022/03/28 04:01:31;;;;;;;8.82;5.32;;;26.60;86.40;;;;;;5124900;28;20008;-54
2022/03/28 04:03:58;;;;;;;9.75;5.78;;;26.60;86.00;;;;;;5124956;28;20022;-52
2022/03/28 04:06:25;;;;;;;10.25;5.45;;;26.60;86.10;;;;;;5124823;28;20015;-49
2022/03/28 04:08:52;;;;;;;10.98;5.25;;;26.60;85.60;;;;;;5124401;28;20060;-50
2022/03/28 04:11:18;;;;;;;11.18;5.57;;;26.60;85.40;;;;;;5124681;28;20022;-51
2022/03/28 04:13:45;;;;;;;8.57;5.05;;;26.60;85.00;;;;;;5124825;28;20011;-52
2022/03/28 04:16:11;;;;;;;9.55;5.00;;;26.60;84.60;;;;;;5124766;28;20133;-50
2022/03/28 04:18:38;;;;;;;10.57;5.22;;;26.60;84.10;;;;;;5124719;28;20027;-50
2022/03/28 04:21:04;;;;;;;12.32;5.45;;;26.60;83.60;;;;;;5134296;27;20044;-50
2022/03/28 04:23:31;;;;;;;13.15;5.50;;;26.60;83.70;;;;;;5129481;27;20096;-51
2022/03/28 04:25:58;;;;;;;10.82;5.10;;;26.60;82.70;;;;;;5124544;28;20026;-50
2022/03/28 04:28:24;;;;;;;8.88;4.57;;;26.60;82.50;;;;;;5125048;28;20047;-52
2022/03/28 04:30:51;;;;;;;9.40;5.13;;;26.60;81.80;;;;;;5124562;28;20023;-57
2022/03/28 04:33:19;;;;;;;8.40;4.80;;;26.60;81.80;;;;;;5124787;28;20331;-49
2022/03/28 04:35:45;;;;;;;12.27;4.72;;;26.60;81.70;;;;;;5124748;28;20023;-53
2022/03/28 04:38:12;;;;;;;11.43;5.38;;;26.60;81.10;;;;;;5124733;28;20073;-51
2022/03/28 04:40:38;;;;;;;14.95;5.10;;;26.50;81.30;;;;;;5124355;28;20019;-48
2022/03/28 04:43:06;;;;;;;10.10;4.88;;;26.60;81.40;;;;;;5124657;28;20038;-55
2022/03/28 04:45:32;;;;;;;8.05;5.03;;;26.50;81.70;;;;;;5124345;28;20020;-52
2022/03/28 04:47:59;;;;;;;9.65;4.95;;;26.60;81.60;;;;;;5124096;28;20285;-54
2022/03/28 04:50:26;;;;;;;10.52;4.93;;;26.60;82.10;;;;;;5124332;28;20024;-49
2022/03/28 04:52:53;;;;;;;12.38;5.50;;;26.50;82.10;;;;;;5124138;28;20257;-48
2022/03/28 04:55:20;;;;;;;8.95;5.07;;;26.60;82.20;;;;;;5124205;28;20123;-52
2022/03/28 04:57:47;;;;;;;10.65;5.10;;;26.50;82.50;;;;;;5106400;28;20058;-53
2022/03/28 05:00:14;;;;;;;12.50;5.60;;;26.50;82.50;;;;;;5124430;28;20012;-55
2022/03/28 05:02:41;;;;;;;8.73;5.60;;;26.50;82.20;;;;;;5124355;28;20165;-48
2022/03/28 05:05:08;;;;;;;12.68;5.38;;;26.50;82.40;;;;;;5124333;28;20236;-52
2022/03/28 05:07:38;;;;;;;12.80;5.30;;;26.60;82.70;;;;;;5124530;28;20039;-50
2022/03/28 05:10:05;;;;;;;14.48;5.90;;;26.60;82.80;;;;;;5123985;28;20027;-49
2022/03/28 05:12:33;;;;;;;16.00;5.82;;;26.60;82.90;;;;;;5124660;28;20024;-50
2022/03/28 05:15:00;;;;;;;14.20;5.60;;;26.50;83.00;;;;;;5124133;28;20319;-48
2022/03/28 05:17:29;;;;;;;10.20;5.38;;;26.50;83.10;;;;;;5124176;28;20036;-52
2022/03/28 05:19:57;;;;;;;12.20;5.53;;;26.50;83.70;;;;;;5125559;28;20019;-54
2022/03/28 05:22:24;;;;;;;11.50;5.45;;;26.50;82.90;;;;;;5128310;28;20031;-54
2022/03/28 05:24:52;;;;;;;15.40;5.70;;;26.50;82.70;;;;;;5127952;28;20019;-47
2022/03/28 05:27:18;;;;;;;12.10;5.38;;;26.50;82.90;;;;;;5128213;28;20031;-53
2022/03/28 05:29:46;;;;;;;16.88;5.70;;;26.50;82.80;;;;;;5127910;28;20027;-53
2022/03/28 05:32:13;;;;;;;7.97;5.03;;;26.50;82.50;;;;;;5127936;28;20355;-50
2022/03/28 05:34:40;;;;;;;8.77;4.72;;;26.40;82.40;;;;;;5127863;28;20055;-49
2022/03/28 05:37:12;;;;;;;12.75;5.20;;;26.50;82.80;;;;;;5127852;28;20295;-54
2022/03/28 05:39:39;;;;;;;11.13;5.22;;;26.50;82.70;;;;;;5127478;28;20027;-49
2022/03/28 05:42:07;;;;;;;11.77;5.22;;;26.50;82.60;;;;;;5127915;28;20362;-52
2022/03/28 05:44:35;;;;;;;10.30;4.88;;;26.50;82.10;;;;;;5127596;28;20267;-52
2022/03/28 05:47:02;;;;;;;12.38;5.32;;;26.50;82.10;;;;;;5127540;28;20061;-59
2022/03/28 05:49:29;;;;;;;10.13;5.68;;;26.50;81.90;;;;;;5127501;28;20020;-53
2022/03/28 05:51:55;;;;;;;10.25;5.28;;;26.50;81.80;;;;;;5127801;28;20303;-56
2022/03/28 05:54:22;;;;;;;10.23;5.35;;;26.50;81.50;;;;;;5127277;28;20031;-53
2022/03/28 05:56:49;;;;;;;10.25;5.20;;;26.50;81.80;;;;;;5127380;28;20024;-47
2022/03/28 05:59:16;;;;;;;11.10;4.70;;;26.50;81.40;;;;;;5127751;28;20080;-53
2022/03/28 06:01:42;;;;;;;14.60;4.95;;;26.50;82.00;;;;;;5127304;28;20031;-51
2022/03/28 06:04:09;;;;;;;14.65;5.13;;;26.50;82.90;;;;;;5127466;28;20011;-54
2022/03/28 06:06:35;;;;;;;12.57;5.20;;;26.50;83.00;;;;;;5127378;28;20029;-52
2022/03/28 06:09:03;;;;;;;12.50;4.85;;;26.50;82.40;;;;;;5127058;28;20015;-54
2022/03/28 06:11:29;;;;;;;12.30;5.40;;;26.50;82.10;;;;;;5127170;28;20027;-53
2022/03/28 06:13:59;;;;;;;19.60;5.50;;;26.50;82.50;;;;;;5127146;28;20015;-53
2022/03/28 06:16:25;;;;;;;11.57;4.85;;;26.50;82.20;;;;;;5126858;28;20039;-52
2022/03/28 06:18:53;;;;;;;8.48;4.40;;;26.40;81.70;;;;;;5126866;28;20027;-51
2022/03/28 06:21:19;;;;;;;10.73;4.55;;;26.50;82.20;;;;;;5127015;28;20015;-51
2022/03/28 06:23:46;;;;;;;10.10;5.03;;;26.40;81.90;;;;;;5126693;28;20079;-52
2022/03/28 06:26:12;;;;;;;10.23;5.05;;;26.40;81.30;;;;;;5126824;28;20049;-51
2022/03/28 06:28:40;;;;;;;12.88;5.28;;;26.40;81.90;;;;;;5126708;28;20030;-53
2022/03/28 06:31:08;;;;;;;9.80;4.72;;;26.40;81.90;;;;;;5126203;28;20024;-54
2022/03/28 06:33:35;;;;;;;14.60;4.70;;;26.40;81.30;;;;;;5127194;28;20035;-50
2022/03/28 06:36:03;;;;;;;10.13;4.68;;;26.40;81.50;;;;;;5126703;28;20011;-49
2022/03/28 06:38:30;;;;;;;11.80;4.57;;;26.40;81.30;;;;;;5126220;28;20086;-51
2022/03/28 06:40:56;;;;;;;9.95;4.90;;;26.40;81.90;;;;;;5126608;28;20206;-54
2022/03/28 06:43:23;;;;;;;11.98;4.90;;;26.40;82.10;;;;;;5126984;28;20023;-53
2022/03/28 06:45:51;;;;;;;13.40;5.20;;;26.40;82.20;;;;;;5126371;28;20027;-50
2022/03/28 06:48:19;;;;;;;12.07;4.93;;;26.40;81.90;;;;;;5126644;28;20055;-49
2022/03/28 06:50:46;;;;;;;9.60;4.85;;;26.40;82.10;;;;;;5126457;28;20051;-52
2022/03/28 06:53:13;;;;;;;9.98;4.53;;;26.50;81.80;;;;;;5126641;28;20084;-52
2022/03/28 06:55:40;;;;;;;10.32;4.80;;;26.40;81.20;;;;;;5126317;28;20023;-50
2022/03/28 06:58:06;;;;;;;10.57;4.80;;;26.40;81.10;;;;;;5126597;28;20299;-49
2022/03/28 07:00:34;;;;;;;9.73;4.65;;;26.40;81.30;;;;;;5126052;28;20024;-48
2022/03/28 07:03:00;;;;;;;11.35;4.95;;;26.40;81.50;;;;;;5126548;28;20082;-53
2022/03/28 07:05:30;;;;;;;12.50;5.03;;;26.40;81.50;;;;;;5126061;28;20023;-59
2022/03/28 07:07:57;;;;;;;13.20;5.07;;;26.40;81.00;;;;;;5126327;28;20094;-54
2022/03/28 07:10:23;;;;;;;12.50;5.05;;;26.40;81.10;;;;;;5125979;28;20019;-51
2022/03/28 07:12:54;;;;;;;10.05;4.43;;;26.40;81.00;;;;;;5126347;28;20023;-53
2022/03/28 07:15:21;;;;;;;12.15;4.80;;;26.40;80.70;;;;;;5125829;28;20080;-53
2022/03/28 07:17:56;;;;;;;13.95;5.18;;;26.40;80.70;;;;;;5126074;28;20322;-54
2022/03/28 07:20:27;;;;;;;10.25;4.88;;;26.40;80.30;;;;;;5125762;28;20055;-48
2022/03/28 07:22:55;;;;;;;10.10;4.93;;;26.40;80.90;;;;;;5125729;28;20016;-47
2022/03/28 07:25:23;;;;;;;10.35;5.25;;;26.40;81.50;;;;;;5125800;28;20031;-51
2022/03/28 07:27:50;;;;;;;11.88;5.53;;;26.40;81.70;;;;;;5126002;28;20028;-51
2022/03/28 07:30:19;;;;;;;12.00;5.65;;;26.50;81.80;;;;;;5125874;28;20035;-55
2022/03/28 07:32:46;;;;;;;11.52;5.65;;;26.50;81.90;;;;;;5125853;28;20024;-56
2022/03/28 07:35:15;;;;;;;14.07;6.78;;;26.40;81.70;;;;;;5125441;28;20024;-55
2022/03/28 07:37:43;;;;;;;13.85;6.78;;;26.40;82.00;;;;;;5125607;28;20024;-53
2022/03/28 07:40:11;;;;;;;14.30;6.88;;;26.40;82.40;;;;;;5125377;28;20088;-48
2022/03/28 07:42:40;;;;;;;12.80;7.30;;;26.40;82.80;;;;;;5124873;28;20065;-56
2022/03/28 07:45:08;;;;;;;18.23;7.35;;;26.40;83.00;;;;;;5125350;28;20015;-49
2022/03/28 07:47:36;;;;;;;14.00;7.22;;;26.40;82.90;;;;;;5125174;28;20048;-51
2022/03/28 07:50:03;;;;;;;14.00;7.35;;;26.40;82.90;;;;;;5125038;28;20026;-53
2022/03/28 07:52:31;;;;;;;16.05;7.43;;;26.40;83.20;;;;;;5125465;28;20068;-51
2022/03/28 07:54:58;;;;;;;18.42;7.50;;;26.40;83.10;;;;;;5125075;28;20019;-50
2022/03/28 07:57:25;;;;;;;15.23;7.30;;;26.30;82.80;;;;;;5125008;28;20031;-50
2022/03/28 07:59:51;;;;;;;12.57;6.40;;;26.40;82.70;;;;;;5125192;28;20019;-49
2022/03/28 08:02:18;;;;;;;13.00;6.70;;;26.30;82.30;;;;;;5125286;28;20230;-52
2022/03/28 08:04:45;;;;;;;14.43;6.32;;;26.40;82.20;;;;;;5124892;28;20057;-51
2022/03/28 08:07:15;;;;;;;14.32;6.50;;;26.30;82.00;;;;;;5124979;28;20023;-53
2022/03/28 08:09:42;;;;;;;17.95;6.28;;;26.40;81.50;;;;;;5124890;28;20026;-49
2022/03/28 08:12:10;;;;;;;12.60;5.78;;;26.40;81.40;;;;;;5124916;28;20035;-51
2022/03/28 08:14:37;;;;;;;11.38;6.53;;;26.40;81.60;;;;;;5125035;28;20031;-50
2022/03/28 08:17:05;;;;;;;13.32;6.45;;;26.40;81.50;;;;;;5124871;28;20094;-53
2022/03/28 08:19:31;;;;;;;12.38;6.32;;;26.40;81.30;;;;;;5124609;28;20039;-50
2022/03/28 08:21:58;;;;;;;13.07;7.43;;;26.40;81.70;;;;;;5124860;28;20086;-51
2022/03/28 08:24:25;;;;;;;15.52;7.38;;;26.30;81.70;;;;;;5124759;28;20016;-46
2022/03/28 08:26:51;;;;;;;14.93;6.97;;;26.30;82.00;;;;;;5124574;28;20024;-48
2022/03/28 08:29:18;;;;;;;14.98;6.90;;;26.30;82.10;;;;;;5124606;28;20012;-53
2022/03/28 08:31:45;;;;;;;12.27;7.00;;;26.40;82.50;;;;;;5124829;28;20031;-50
2022/03/28 08:34:11;;;;;;;12.55;8.07;;;26.40;82.60;;;;;;5124418;28;20011;-48
2022/03/28 08:36:38;;;;;;;14.55;7.78;;;26.30;82.70;;;;;;5124489;28;20051;-53
2022/03/28 08:39:05;;;;;;;12.75;7.25;;;26.40;82.90;;;;;;5124357;28;20305;-50
2022/03/28 08:41:33;;;;;;;10.90;7.25;;;26.30;83.10;;;;;;5124295;28;20015;-52
2022/03/28 08:44:00;;;;;;;13.38;8.10;;;26.30;82.90;;;;;;5124497;28;20023;-49
2022/03/28 08:46:29;;;;;;;17.42;8.10;;;26.30;83.00;;;;;;5124396;28;20049;-48
2022/03/28 08:48:58;;;;;;;15.43;7.50;;;26.30;83.10;;;;;;5124089;28;20119;-54
2022/03/28 08:51:27;;;;;;;14.20;7.95;;;26.30;83.20;;;;;;5124526;28;20024;-47
2022/03/28 08:53:54;;;;;;;13.88;7.43;;;26.30;83.20;;;;;;5125354;28;20019;-51
2022/03/28 08:56:20;;;;;;;11.25;7.30;;;26.30;83.20;;;;;;5128470;28;20027;-49
2022/03/28 08:58:48;;;;;;;13.25;7.25;;;26.30;83.30;;;;;;5128454;28;20019;-56
2022/03/28 09:01:16;;;;;;;12.80;7.65;;;26.30;83.20;;;;;;5128333;28;20043;-51
2022/03/28 09:03:47;;;;;;;12.05;7.75;;;26.30;83.30;;;;;;5128306;28;20065;-54
2022/03/28 09:06:33;;;;;;;12.15;7.28;;;26.30;82.90;;;;;;5128394;28;20020;-51
2022/03/28 09:09:20;;;;;;;13.98;7.45;;;26.30;83.00;;;;;;5128214;28;20050;-52
2022/03/28 09:11:54;;;;;;;12.05;7.22;;;26.30;82.90;;;;;;5128435;28;20059;-51
2022/03/28 09:14:30;;;;;;;13.57;8.02;;;26.30;83.00;;;;;;5109800;28;20306;-50
2022/03/28 09:17:13;;;;;;;12.38;7.32;;;26.30;83.10;;;;;;5128253;28;20204;-51
2022/03/28 09:19:45;;;;;;;13.82;7.50;;;26.30;83.30;;;;;;5128099;28;20038;-49
2022/03/28 09:22:13;;;;;;;;;;;26.20;83.10;;;;;;5128851;28;20024;-53
2022/03/28 09:24:41;;;;;;;11.77;7.57;;;26.30;83.40;;;;;;5127946;28;19900;-53
2022/03/28 09:27:17;;;;;;;15.50;7.82;;;26.20;83.30;;;;;;5128163;28;20305;-49
2022/03/28 09:30:00;;;;;;;14.75;8.07;;;26.20;83.40;;;;;;5127869;28;20023;-56
2022/03/28 09:32:30;;;;;;;12.57;7.43;;;26.20;83.30;;;;;;5128101;28;20319;-52
2022/03/28 09:35:24;;;;;;;12.75;8.18;;;26.20;83.20;;;;;;5127856;28;20016;-47
2022/03/28 09:38:08;;;;;;;17.38;8.48;;;26.20;83.20;;;;;;5127447;28;20035;-47
2022/03/28 09:40:38;;;;;;;12.63;7.65;;;26.20;83.50;;;;;;5127831;28;20016;-47
2022/03/28 09:43:15;;;;;;;10.98;7.32;;;26.20;83.30;;;;;;5128167;28;20319;-47
2022/03/28 09:45:44;;;;;;;15.75;8.30;;;26.20;83.60;;;;;;5127644;28;20061;-55
2022/03/28 09:48:12;;;;;;;12.63;7.60;;;26.20;83.40;;;;;;5127555;28;20055;-50
2022/03/28 09:50:44;;;;;;;13.07;7.82;;;26.20;83.40;;;;;;5127482;28;20027;-50
2022/03/28 09:53:21;;;;;;;18.05;7.63;;;26.20;83.20;;;;;;5127271;28;20035;-53
2022/03/28 09:55:55;;;;;;;15.93;7.20;;;26.20;83.00;;;;;;5127360;28;20023;-52
2022/03/28 09:58:48;;;;;;;14.00;8.20;;;26.20;83.10;;;;;;5127243;28;20023;-51
2022/03/28 10:01:22;;;;;;;15.93;7.85;;;26.20;82.80;;;;;;5127230;28;20042;-48
2022/03/28 10:03:50;;;;;;;15.35;7.30;;;26.20;82.60;;;;;;5127101;28;20207;-51
2022/03/28 10:06:18;;;;;;;11.75;6.63;;;26.20;82.40;;;;;;5126531;28;20307;-54
2022/03/28 10:08:45;;;;;;;16.33;6.68;;;26.20;82.30;;;;;;5127502;28;20031;-54
2022/03/28 10:11:12;;;;;;;11.40;7.00;;;26.20;82.20;;;;;;5127066;28;20016;-50
2022/03/28 10:13:40;;;;;;;14.60;6.95;;;26.20;81.60;;;;;;5127164;28;20193;-48
2022/03/28 10:16:07;;;;;;;11.63;6.90;;;26.20;81.80;;;;;;5127216;28;20019;-47
2022/03/28 10:18:36;;;;;;;14.50;7.20;;;26.20;81.40;;;;;;5127341;28;20279;-53
2022/03/28 10:21:18;;;;;;;12.45;7.20;;;26.20;81.50;;;;;;5127008;28;20020;-50
2022/03/28 10:24:13;;;;;;;11.65;7.20;;;26.30;81.60;;;;;;5126858;28;20020;-53
2022/03/28 10:26:44;;;;;;;12.23;6.88;;;26.30;81.60;;;;;;5126883;28;20195;-47
2022/03/28 10:29:22;;;;;;;13.23;7.00;;;26.30;81.80;;;;;;5126794;28;20331;-51
2022/03/28 10:32:00;;;;;;;12.15;7.10;;;26.30;81.70;;;;;;5126895;28;20208;-48
2022/03/28 10:34:45;;;;;;;11.02;6.90;;;26.30;82.00;;;;;;5126664;28;20012;-49
2022/03/28 10:37:32;;;;;;;11.88;6.90;;;26.30;82.00;;;;;;5126657;28;20094;-49
2022/03/28 10:40:34;;;;;;;14.07;6.75;;;26.30;82.00;;;;;;5126797;28;20016;-47
2022/03/28 10:43:08;;;;;;;15.07;7.90;;;26.30;81.90;;;;;;5127026;28;20094;-50
2022/03/28 10:45:41;;;;;;;13.77;7.72;;;26.30;82.10;;;;;;5126465;28;20024;-50
2022/03/28 10:48:09;;;;;;;14.00;7.93;;;26.30;82.30;;;;;;5126307;28;20123;-52
2022/03/28 10:50:43;;;;;;;13.32;7.72;;;26.30;82.20;;;;;;5126371;28;20019;-55
2022/03/28 10:53:11;;;;;;;14.27;8.20;;;26.30;82.30;;;;;;5126697;28;20104;-49
2022/03/28 10:55:48;;;;;;;12.63;8.13;;;26.30;82.50;;;;;;5126512;28;20026;-54
2022/03/28 10:58:20;;;;;;;13.93;7.78;;;26.30;82.70;;;;;;5126160;28;20096;-55
2022/03/28 11:01:07;;;;;;;14.82;7.55;;;26.30;83.00;;;;;;5126172;28;20023;-46
2022/03/28 11:03:35;;;;;;;12.55;7.82;;;26.20;82.80;;;;;;5126675;28;20023;-49
2022/03/28 11:06:02;;;;;;;15.00;7.60;;;26.20;83.00;;;;;;5125979;28;20012;-52
2022/03/28 11:08:39;;;;;;;12.10;7.43;;;26.20;83.20;;;;;;5126487;28;20027;-49
2022/03/28 11:11:19;;;;;;;14.98;7.78;;;26.20;83.60;;;;;;5125942;28;20019;-53
2022/03/28 11:14:00;;;;;;;15.98;8.20;;;26.20;84.00;;;;;;5125878;28;20065;-47
2022/03/28 11:16:51;;;;;;;15.77;8.57;;;26.20;84.40;;;;;;5125668;28;20022;-59
2022/03/28 11:19:32;;;;;;;17.88;8.15;;;26.20;84.60;;;;;;5125448;28;20024;-59
2022/03/28 11:21:59;;;;;;;16.25;8.10;;;26.20;84.80;;;;;;5125841;28;20053;-57
2022/03/28 11:24:52;;;;;;;20.90;9.30;;;26.20;85.20;;;;;;5125207;28;20023;-59
2022/03/28 11:27:18;;;;;;;;;;;26.20;85.30;;;;;;5125644;28;20023;-55
2022/03/28 11:29:46;;;;;;;15.38;8.77;;;26.20;85.40;;;;;;5124758;28;19967;-57
2022/03/28 11:32:16;;;;;;;14.18;8.60;;;26.20;85.30;;;;;;5125592;28;20023;-55
2022/03/28 11:34:54;;;;;;;18.58;9.25;;;26.20;85.40;;;;;;5125521;28;20080;-54
2022/03/28 11:37:27;;;;;;;16.60;9.60;;;26.20;85.40;;;;;;5124740;28;20023;-57
2022/03/28 11:40:05;;;;;;;27.08;10.35;;;26.20;85.30;;;;;;5124087;28;20456;-56
2022/03/28 11:42:34;;;;;;;16.95;10.57;;;26.20;85.30;;;;;;5124426;28;20025;-57
2022/03/28 11:45:12;;;;;;;13.45;9.98;;;26.30;85.40;;;;;;5124448;28;20019;-52
2022/03/28 11:47:50;;;;;;;17.90;10.73;;;26.30;85.50;;;;;;5124863;28;20084;-49
2022/03/28 11:50:16;;;;;;;20.70;10.55;;;26.30;85.50;;;;;;5125228;28;20027;-53
2022/03/28 11:52:50;;;;;;;19.98;10.98;;;26.30;85.60;;;;;;5125488;28;20047;-54
2022/03/28 11:55:25;;;;;;;17.70;10.10;;;26.30;85.60;;;;;;5125043;28;20069;-56
2022/03/28 12:00:43;;;;;;;17.83;9.05;;;26.30;85.30;;;;;;5124912;28;20045;-53
2022/03/28 12:03:11;;;;;;;12.90;8.60;;;26.30;85.30;;;;;;5125423;28;20090;-55
2022/03/28 12:05:47;;;;;;;19.75;9.35;;;26.40;85.40;;;;;;5124979;28;20020;-50
2022/03/28 12:08:17;;;;;;;14.30;8.95;;;26.40;85.20;;;;;;5125423;28;20098;-50
2022/03/28 12:10:49;;;;;;;15.85;8.32;;;26.40;85.40;;;;;;5124924;28;20015;-55
2022/03/28 12:13:17;;;;;;;15.68;9.00;;;26.40;85.10;;;;;;5125165;28;20026;-50
2022/03/28 12:15:46;;;;;;;15.70;8.95;;;26.40;85.30;;;;;;5124817;28;20019;-49
2022/03/28 12:18:15;;;;;;;13.75;8.75;;;26.40;85.50;;;;;;5125160;28;20307;-51
2022/03/28 12:20:51;;;;;;;15.02;8.35;;;26.40;85.60;;;;;;5124614;28;20026;-53
2022/03/28 12:23:20;;;;;;;13.60;7.95;;;26.50;86.10;;;;;;5125158;28;20034;-50
2022/03/28 12:25:54;;;;;;;16.73;8.25;;;26.50;86.20;;;;;;5124507;28;20025;-52
2022/03/28 12:28:35;;;;;;;15.00;8.68;;;26.50;86.50;;;;;;5124756;28;20207;-53
2022/03/28 12:31:04;;;;;;;15.02;9.30;;;26.50;86.40;;;;;;5124469;28;20077;-53
2022/03/28 12:33:42;;;;;;;17.55;9.50;;;26.50;86.20;;;;;;5125035;28;20027;-52
2022/03/28 12:36:13;;;;;;;15.52;9.35;;;26.50;86.30;;;;;;5124579;28;20023;-58
2022/03/28 12:38:56;;;;;;;16.30;9.45;;;26.50;86.90;;;;;;5106200;28;20359;-53
2022/03/28 12:41:22;;;;;;;18.13;9.23;;;26.50;86.90;;;;;;5124406;28;20031;-53
2022/03/28 12:43:52;;;;;;;13.77;9.38;;;26.50;87.10;;;;;;5124362;28;20011;-49
2022/03/28 12:46:19;;;;;;;12.65;8.80;;;26.50;87.20;;;;;;5124387;28;20019;-60
2022/03/28 12:48:51;;;;;;;17.38;8.95;;;26.50;87.20;;;;;;5124289;28;20111;-53
2022/03/28 12:51:40;;;;;;;17.25;9.38;;;26.50;87.30;;;;;;5124190;28;20048;-53